KSNL/SNL METAR and TAF weather

Enter ICAO airport designator
Station Type Date Time Source
KSNL METAR 2019/02/17 15:35 UTC NOAA

KSNL 171535Z AUTO 35011G18KT 10SM CLR 00/M03 A2999 RMK AO2 T10011032


Station Type Date Time Source
KSNL Decoded METAR 2019/02/17 15:35 UTC NOAA

Shawnee, Shawnee Municipal Airport, OK, United States (KSNL) 35-21-26N 096-56-34W
Feb 17, 2019 - 10:35 AM EST / 2019.02.17 1535 UTC
Wind: from the N (350 degrees) at 13 MPH (11 KT) gusting to 21 MPH (18 KT):0
Visibility: 10 mile(s):0
Sky conditions: clear
Temperature: 31.8 F (-0.1 C)
Windchill: 23 F (-5 C):1
Dew Point: 26.2 F (-3.2 C)
Relative Humidity: 79%
Pressure (altimeter): 29.99 in. Hg (1015 hPa)
ob: KSNL 171535Z AUTO 35011G18KT 10SM CLR 00/M03 A2999 RMK AO2 T10011032
cycle: 15

Station Type Date Time Source
KSNL TAF UTC NOAA

Error!


Example: see airport list